Birk — V2BF5 — position and weather

sailwx.info

Track history (hours):
 
Tides and Currents Weather Stations Pressure Air Temp Water Temp Dewpoint Dewpoint Depression Visibility Wind Speed Wind Dir Waves Ship Positions

Birk

Last reported at 2014-Nov-19 21:30 UTC. Time now 2014-Nov-22 01:57 UTC.
Position N 16°21' W 061°57'.

Length 132 m; draft 6.6 m.

Type: Ship. MMSI: 304535000.

Date/timePositionNaut miles runAvg speedWind from/ knotsBaromVisibWave heightAir tempDewpointWater temp
2014-Nov-19 21:30N 16°21' W 061°57'1414.7
2014-Nov-19 20:33N 16°35' W 061°57'1514.8
2014-Nov-19 19:33N 16°50' W 061°57'95 7.0
2014-Nov-19 06:05N 18°00' W 063°03'2 0.9
2014-Nov-19 03:32N 18°00' W 063°05'14 6.8
2014-Nov-19 01:32N 17°59' W 063°20'1414.7
2014-Nov-19 00:33N 17°58' W 063°35'  
2014-Nov-15 19:30N 25°39' W 080°02'10 8.9
2014-Nov-15 18:23N 25°46' W 080°10'0 0.0
2014-Nov-15 08:11N 25°46' W 080°10'0 0.0
2014-Nov-15 07:17N 25°46' W 080°10'0 0.0
2014-Nov-15 06:10N 25°46' W 080°10'2 1.1
2014-Nov-15 04:31N 25°46' W 080°08'6 6.1
2014-Nov-15 03:34N 25°43' W 080°03'  
Track history (hours):
 
Tides and Currents Weather Stations Pressure Air Temp Water Temp Dewpoint Dewpoint Depression Visibility Wind Speed Wind Dir Waves Ship Positions

Birk

Last reported at 2014-Nov-19 21:30 UTC. Time now 2014-Nov-22 01:57 UTC.
Position N 16°21' W 061°57'.

Length 132 m; draft 6.6 m.

Type: Ship. MMSI: 304535000.

Date/timePositionNaut miles runAvg speedWind from/ knotsBaromVisibWave heightAir tempDewpointWater temp
2014-Nov-19 21:30N 16°21' W 061°57'1414.7
2014-Nov-19 20:33N 16°35' W 061°57'1514.8
2014-Nov-19 19:33N 16°50' W 061°57'95 7.0
2014-Nov-19 06:05N 18°00' W 063°03'2 0.9
2014-Nov-19 03:32N 18°00' W 063°05'14 6.8
2014-Nov-19 01:32N 17°59' W 063°20'1414.7
2014-Nov-19 00:33N 17°58' W 063°35'  
2014-Nov-15 19:30N 25°39' W 080°02'10 8.9
2014-Nov-15 18:23N 25°46' W 080°10'0 0.0
2014-Nov-15 08:11N 25°46' W 080°10'0 0.0
2014-Nov-15 07:17N 25°46' W 080°10'0 0.0
2014-Nov-15 06:10N 25°46' W 080°10'2 1.1
2014-Nov-15 04:31N 25°46' W 080°08'6 6.1
2014-Nov-15 03:34N 25°43' W 080°03'  

Dump ship's entire track history